Time;durP1;ratioP1;P1;durP2;ratioP2;P2;SDS_P1;SDS_P2;PMS_P1;PMS_P2;Temp;Humidity;BMP_temperature;BMP_pressure;BME280_temperature;BME280_humidity;BME280_pressure;Samples;Min_cycle;Max_cycle;Signal;HPM_P1;HPM_P2
2022/09/19 00:01:40;;;;;;;1.85;0.33;;;;;;;12.81;100.00;97921.72;1650729;86;20928;-68
2022/09/19 00:04:17;;;;;;;1.47;0.28;;;;;;;12.79;100.00;97923.47;1650683;85;21020;-69
2022/09/19 00:06:45;;;;;;;3.40;0.40;;;;;;;12.76;100.00;97925.61;1650682;87;20952;-71
2022/09/19 00:09:17;;;;;;;0.30;0.30;;;;;;;12.73;100.00;97928.52;1650712;86;20968;-72
2022/09/19 00:11:46;;;;;;;0.40;0.28;;;;;;;12.75;100.00;97939.20;1650789;85;21004;-64
2022/09/19 00:14:16;;;;;;;3.02;0.40;;;;;;;12.73;100.00;97936.81;1650794;86;21483;-69
2022/09/19 00:16:44;;;;;;;3.00;0.42;;;;;;;12.71;100.00;97935.60;1651139;86;20976;-71
2022/09/19 00:19:17;;;;;;;2.83;0.23;;;;;;;12.71;100.00;97935.60;1650686;87;21012;-63
2022/09/19 00:21:47;;;;;;;0.57;0.40;;;;;;;12.70;100.00;97935.37;1650810;87;21537;-72
2022/09/19 00:27:07;;;;;;;0.20;0.20;;;;;;;12.72;100.00;97938.56;1650654;87;21024;-71
2022/09/19 00:29:37;;;;;;;0.20;0.20;;;;;;;12.72;100.00;97943.52;1650730;87;20945;-72
2022/09/19 00:32:12;;;;;;;0.62;0.30;;;;;;;12.70;100.00;97940.90;1650698;86;21594;-69
2022/09/19 00:34:47;;;;;;;0.30;0.30;;;;;;;12.70;100.00;97942.28;1650655;87;20952;-72
2022/09/19 00:37:17;;;;;;;0.47;0.35;;;;;;;12.68;100.00;97938.52;1650825;86;21172;-68
2022/09/19 00:39:44;;;;;;;0.65;0.40;;;;;;;12.72;100.00;97934.42;1651199;87;21050;-67
2022/09/19 00:42:18;;;;;;;0.50;0.40;;;;;;;12.70;100.00;97942.28;1650945;86;21572;-71
2022/09/19 00:45:09;;;;;;;0.62;0.60;;;;;;;12.71;100.00;97937.77;1650876;86;21568;-68
2022/09/19 00:47:42;;;;;;;1.90;0.72;;;;;;;12.70;100.00;97940.33;1650550;86;21052;-67
2022/09/19 00:50:15;;;;;;;1.00;0.78;;;;;;;12.70;100.00;97936.75;1650754;86;21445;-71
2022/09/19 00:52:52;;;;;;;4.03;0.80;;;;;;;12.70;100.00;97938.14;1631925;87;20975;-72
2022/09/19 00:55:19;;;;;;;5.33;1.02;;;;;;;12.71;100.00;97942.52;1606262;89;21046;-70
2022/09/19 00:57:57;;;;;;;0.85;0.78;;;;;;;12.73;100.00;97949.25;1606388;88;21554;-70
2022/09/19 01:00:24;;;;;;;1.30;0.88;;;;;;;12.75;100.00;97941.96;1606229;88;21109;-70
2022/09/19 01:02:52;;;;;;;1.22;0.93;;;;;;;12.78;100.00;97940.63;1595644;88;21168;-69
2022/09/19 01:05:26;;;;;;;0.70;0.70;;;;;;;12.80;100.00;97948.55;1606156;89;20958;-69
2022/09/19 01:08:23;;;;;;;0.98;0.90;;;;;;;12.80;100.00;97940.26;1606173;88;21527;-67
2022/09/19 01:11:00;;;;;;;1.50;0.80;;;;;;;12.81;100.00;97956.27;1598281;88;20966;-71
2022/09/19 01:13:38;;;;;;;2.37;1.45;;;;;;;12.84;100.00;97959.08;1597199;88;21018;-72
2022/09/19 01:16:09;;;;;;;1.90;1.17;;;;;;;12.87;100.00;97961.67;1597363;89;21141;-66
2022/09/19 01:18:47;;;;;;;3.52;1.27;;;;;;;12.88;100.00;97961.29;1597037;88;21021;-69
2022/09/19 01:21:39;;;;;;;1.10;0.90;;;;;;;12.92;100.00;97967.45;1597491;89;21023;-67
2022/09/19 01:24:37;;;;;;;3.15;1.10;;;;;;;12.94;100.00;97960.97;1597204;88;21086;-66
2022/09/19 01:27:19;;;;;;;3.50;1.17;;;;;;;12.94;100.00;97966.50;1597332;88;21026;-65
2022/09/19 01:29:47;;;;;;;;;;;;;;;12.95;100.00;97961.20;1599600;88;22163;-72
2022/09/19 01:32:18;;;;;;;1.17;1.07;;;;;;;12.96;100.00;97971.88;1587256;89;20177;-72
2022/09/19 01:34:51;;;;;;;2.25;1.20;;;;;;;12.99;100.00;97962.03;1597140;89;21067;-72
2022/09/19 01:37:27;;;;;;;1.77;1.30;;;;;;;13.00;100.00;97973.28;1597307;89;21030;-68
2022/09/19 01:39:52;;;;;;;1.40;1.30;;;;;;;13.04;100.00;97974.14;1597411;88;20973;-69
2022/09/19 01:42:20;;;;;;;4.35;1.40;;;;;;;13.03;100.00;97983.02;1597504;88;21114;-69
2022/09/19 01:44:47;;;;;;;2.05;1.40;;;;;;;13.03;100.00;97974.72;1586689;89;21015;-70
2022/09/19 01:47:50;;;;;;;2.72;1.52;;;;;;;13.05;100.00;97979.88;1564248;91;21135;-68
2022/09/19 01:50:23;;;;;;;;;;;;;;;13.08;100.00;97986.06;1564947;90;21024;-66
2022/09/19 01:53:10;;;;;;;6.97;1.50;;;;;;;13.10;100.00;97981.53;1562502;90;20146;-70
2022/09/19 01:55:47;;;;;;;2.37;1.70;;;;;;;13.11;100.00;97981.73;1560925;91;21577;-68
2022/09/19 01:58:25;;;;;;;2.85;1.52;;;;;;;13.11;100.00;97982.55;1562394;91;21055;-68
2022/09/19 02:01:16;;;;;;;6.35;2.05;;;;;;;13.14;100.00;97994.23;1562548;91;20981;-69
2022/09/19 02:04:01;;;;;;;3.80;1.55;;;;;;;13.19;100.00;97990.91;1562387;90;21008;-70
2022/09/19 02:06:54;;;;;;;2.30;1.40;;;;;;;13.23;100.00;97993.15;1562723;91;21103;-72
2022/09/19 02:09:44;;;;;;;1.72;1.10;;;;;;;13.23;100.00;98016.08;1562617;91;21191;-65
2022/09/19 02:12:15;;;;;;;1.42;1.32;;;;;;;13.26;100.00;98020.05;1565230;91;20924;-71
2022/09/19 02:14:43;;;;;;;1.50;1.40;;;;;;;13.26;100.00;98023.62;1571262;91;21043;-66
2022/09/19 02:17:13;;;;;;;2.45;1.47;;;;;;;13.29;100.00;98025.43;1571176;91;21043;-69
2022/09/19 02:20:01;;;;;;;4.30;1.75;;;;;;;13.30;100.00;98033.35;1571301;91;21046;-68
2022/09/19 02:22:31;;;;;;;2.55;1.45;;;;;;;13.32;100.00;98023.30;1571324;91;21079;-68
2022/09/19 02:25:02;;;;;;;1.85;1.40;;;;;;;13.32;100.00;98031.02;1571184;91;21004;-68
2022/09/19 02:27:44;;;;;;;2.08;1.22;;;;;;;13.31;100.00;98030.78;1592140;90;20997;-64
2022/09/19 02:30:12;;;;;;;2.10;1.45;;;;;;;13.30;100.00;98030.59;1571290;91;21592;-70
2022/09/19 02:32:46;;;;;;;3.08;1.62;;;;;;;13.31;100.00;98038.28;1571230;91;20920;-69
2022/09/19 02:35:13;;;;;;;2.77;1.42;;;;;;;13.30;100.00;98038.88;1571589;90;21146;-65
2022/09/19 02:37:52;;;;;;;2.92;1.82;;;;;;;13.30;100.00;98052.71;1571203;91;20971;-68
2022/09/19 02:40:35;;;;;;;3.20;1.62;;;;;;;13.30;100.00;98046.38;1571476;90;21011;-72
2022/09/19 02:43:14;;;;;;;1.85;1.60;;;;;;;13.31;100.00;98048.77;1571096;90;21059;-70
2022/09/19 02:45:51;;;;;;;4.35;1.87;;;;;;;13.31;100.00;98061.21;1553558;92;20968;-71
2022/09/19 02:48:31;;;;;;;3.52;1.80;;;;;;;13.32;100.00;98061.44;1599237;89;21173;-72
2022/09/19 02:51:22;;;;;;;1.70;1.47;;;;;;;13.31;100.00;98065.94;1599126;89;21488;-68
2022/09/19 02:53:58;;;;;;;1.60;1.50;;;;;;;13.27;100.00;98078.36;1595082;89;21031;-69
2022/09/19 02:56:33;;;;;;;2.83;1.40;;;;;;;13.24;100.00;98078.50;1599434;89;21055;-67
2022/09/19 02:59:06;;;;;;;2.12;1.92;;;;;;;13.27;100.00;98068.67;1599441;89;21030;-72
2022/09/19 03:01:48;;;;;;;3.25;1.90;;;;;;;13.29;100.00;98077.98;1599256;88;21164;-71
2022/09/19 03:04:19;;;;;;;4.17;1.90;;;;;;;13.30;100.00;98083.72;1599110;89;21542;-68
2022/09/19 03:06:57;;;;;;;2.55;2.10;;;;;;;13.30;100.00;98092.02;1594830;89;20879;-65
2022/09/19 03:09:28;;;;;;;4.03;2.02;;;;;;;13.26;100.00;98101.06;1599251;89;21009;-72
2022/09/19 03:12:18;;;;;;;4.85;2.10;;;;;;;13.26;100.00;98100.25;1590773;88;20998;-72
2022/09/19 03:14:57;;;;;;;4.28;2.00;;;;;;;13.27;100.00;98099.88;1597075;89;21607;-70
2022/09/19 03:17:19;;;;;;;1.90;1.80;;;;;;;13.27;100.00;98097.72;1615359;87;21520;-67
2022/09/19 03:19:48;;;;;;;6.00;1.82;;;;;;;13.20;100.00;98103.95;1614851;88;21049;-71
2022/09/19 03:22:15;;;;;;;8.70;2.62;;;;;;;13.24;100.00;98106.73;1618749;88;21070;-72
2022/09/19 03:24:43;;;;;;;3.58;2.00;;;;;;;13.22;100.00;98106.34;1614961;88;21018;-71
2022/09/19 03:27:10;;;;;;;7.42;2.05;;;;;;;13.18;100.00;98113.77;1615086;88;21275;-69
2022/09/19 03:29:38;;;;;;;3.47;2.45;;;;;;;13.17;100.00;98112.19;1614878;88;20961;-72
2022/09/19 03:32:05;;;;;;;5.47;2.67;;;;;;;13.15;100.00;98110.57;1615180;88;21004;-71
2022/09/19 03:34:32;;;;;;;3.22;2.17;;;;;;;13.18;100.00;98124.83;1615162;88;21482;-68
2022/09/19 03:37:02;;;;;;;3.10;2.05;;;;;;;13.21;100.00;98126.27;1615170;88;21085;-66
2022/09/19 03:39:29;;;;;;;5.70;2.05;;;;;;;13.22;100.00;98128.46;1615006;88;21531;-67
2022/09/19 03:41:56;;;;;;;6.78;2.60;;;;;;;13.23;100.00;98128.09;1614935;88;21103;-68
2022/09/19 03:44:22;;;;;;;4.15;2.37;;;;;;;13.25;100.00;98139.58;1615023;88;21025;-69
2022/09/19 03:46:49;;;;;;;4.35;2.22;;;;;;;13.25;100.00;98138.20;1615360;88;21535;-68
2022/09/19 03:49:16;;;;;;;3.10;2.20;;;;;;;13.26;100.00;98143.13;1615022;88;21056;-66
2022/09/19 03:51:46;;;;;;;2.67;2.40;;;;;;;13.27;100.00;98153.81;1615065;88;21246;-66
2022/09/19 03:54:13;;;;;;;2.27;2.08;;;;;;;13.29;100.00;98154.82;1615012;88;20917;-71
2022/09/19 03:56:42;;;;;;;4.28;2.25;;;;;;;13.29;100.00;98162.34;1615088;88;20993;-72
2022/09/19 03:59:09;;;;;;;2.62;2.40;;;;;;;13.29;100.00;98158.97;1615025;88;21005;-71
2022/09/19 04:01:38;;;;;;;4.35;2.55;;;;;;;13.29;100.00;98160.35;1615050;88;21160;-71
2022/09/19 04:04:05;;;;;;;3.60;2.15;;;;;;;13.30;100.00;98179.95;1615342;88;21593;-72
2022/09/19 04:06:37;;;;;;;3.62;2.40;;;;;;;13.29;100.00;98181.70;1615092;88;21057;-68
2022/09/19 04:09:04;;;;;;;3.62;2.20;;;;;;;13.29;100.00;98183.09;1615288;88;21514;-72
2022/09/19 04:11:31;;;;;;;3.60;2.20;;;;;;;13.31;100.00;98189.02;1615105;88;21476;-69
2022/09/19 04:13:57;;;;;;;5.55;2.25;;;;;;;13.32;100.00;98192.83;1601317;87;20967;-72
2022/09/19 04:16:26;;;;;;;3.20;2.67;;;;;;;13.33;100.00;98196.38;1597267;89;21148;-68
2022/09/19 04:18:53;;;;;;;4.12;2.50;;;;;;;13.32;100.00;98208.62;1597391;89;20879;-71
2022/09/19 04:21:25;;;;;;;3.62;2.02;;;;;;;13.32;100.00;98209.42;1599418;88;21053;-66
2022/09/19 04:23:55;;;;;;;3.47;2.45;;;;;;;13.36;100.00;98209.45;1571326;90;20992;-68
2022/09/19 04:26:33;;;;;;;5.33;3.00;;;;;;;13.36;100.00;98218.56;1588141;88;20987;-72
2022/09/19 04:29:03;;;;;;;3.60;2.10;;;;;;;13.37;100.00;98212.45;1597365;88;20950;-71
2022/09/19 04:31:39;;;;;;;4.40;2.67;;;;;;;13.36;100.00;98223.28;1607815;88;21030;-65
2022/09/19 04:34:13;;;;;;;4.37;2.30;;;;;;;13.37;100.00;98228.45;1597301;89;20998;-63
2022/09/19 04:36:38;;;;;;;2.65;2.30;;;;;;;13.39;100.00;98228.10;1597833;88;21028;-71
2022/09/19 04:39:06;;;;;;;2.50;2.30;;;;;;;13.39;100.00;98234.41;1597205;89;21034;-67
2022/09/19 04:41:36;;;;;;;2.70;2.30;;;;;;;13.41;100.00;98234.64;1597364;88;22104;-71
2022/09/19 04:44:04;;;;;;;2.85;2.30;;;;;;;13.43;100.00;98237.24;1597225;89;20879;-65
2022/09/19 04:46:50;;;;;;;4.42;2.52;;;;;;;13.46;100.00;98244.02;1597352;89;20951;-68
2022/09/19 04:49:17;;;;;;;2.50;2.15;;;;;;;13.46;100.00;98252.31;1597441;89;21014;-69
2022/09/19 04:51:44;;;;;;;4.22;2.35;;;;;;;13.46;100.00;98248.17;1597319;88;20919;-69
2022/09/19 04:54:11;;;;;;;11.22;2.77;;;;;;;13.45;100.00;98248.74;1597223;89;21149;-72
2022/09/19 04:56:44;;;;;;;3.58;2.72;;;;;;;13.45;100.00;98247.94;1597148;89;21014;-67
2022/09/19 04:59:11;;;;;;;2.77;2.10;;;;;;;13.46;100.00;98260.02;1597442;89;20987;-71
2022/09/19 05:01:39;;;;;;;6.05;2.42;;;;;;;13.48;100.00;98251.34;1597162;88;20982;-71
2022/09/19 05:04:05;;;;;;;5.40;2.33;;;;;;;13.48;100.00;98258.25;1597371;88;21109;-69
2022/09/19 05:06:33;;;;;;;3.72;3.02;;;;;;;13.50;100.00;98269.76;1597363;89;21152;-71
2022/09/19 05:09:01;;;;;;;4.08;2.47;;;;;;;13.53;100.00;98268.27;1597457;89;21106;-68
2022/09/19 05:11:30;;;;;;;4.28;2.95;;;;;;;13.53;100.00;98280.11;1597325;88;20875;-67
2022/09/19 05:13:58;;;;;;;3.60;2.45;;;;;;;13.54;100.00;98270.66;1597159;88;21594;-68
2022/09/19 05:16:27;;;;;;;4.62;2.58;;;;;;;13.54;100.00;98287.27;1597268;89;20966;-70
2022/09/19 05:18:56;;;;;;;5.40;2.37;;;;;;;13.54;100.00;98283.69;1569127;91;21167;-71
2022/09/19 05:21:23;;;;;;;2.83;2.55;;;;;;;13.53;100.00;98291.17;1597223;89;20947;-68
2022/09/19 05:23:50;;;;;;;3.83;2.37;;;;;;;13.54;100.00;98303.05;1597296;88;20991;-72
2022/09/19 05:26:18;;;;;;;3.25;2.70;;;;;;;13.57;100.00;98305.89;1597318;89;21007;-73
2022/09/19 05:28:48;;;;;;;4.05;2.77;;;;;;;13.59;100.00;98313.23;1597001;88;21476;-67
2022/09/19 05:31:18;;;;;;;6.17;2.87;;;;;;;13.61;100.00;98308.11;1597313;88;21171;-70
2022/09/19 05:33:46;;;;;;;5.78;2.95;;;;;;;13.62;100.00;98312.49;1597219;89;21006;-71
2022/09/19 05:36:14;;;;;;;3.85;2.87;;;;;;;13.63;100.00;98321.58;1597499;88;21045;-72
2022/09/19 05:38:57;;;;;;;5.53;3.45;;;;;;;13.63;100.00;98326.53;1582643;88;21087;-68
2022/09/19 05:41:38;;;;;;;4.67;3.17;;;;;;;13.65;100.00;98326.16;1598275;88;21035;-71
2022/09/19 05:44:16;;;;;;;5.62;3.55;;;;;;;13.66;100.00;98335.27;1598253;88;21308;-73
2022/09/19 05:46:43;;;;;;;7.03;3.20;;;;;;;13.64;100.00;98335.64;1597214;88;20915;-71
2022/09/19 05:49:11;;;;;;;5.30;3.52;;;;;;;13.64;100.00;98345.33;1597239;88;21026;-71
2022/09/19 05:51:38;;;;;;;4.17;3.08;;;;;;;13.65;100.00;98352.45;1597284;88;21068;-71
2022/09/19 05:54:06;;;;;;;5.22;3.45;;;;;;;13.68;100.00;98350.33;1597474;88;21574;-69
2022/09/19 05:56:34;;;;;;;9.48;3.50;;;;;;;13.70;100.00;98353.53;1597580;88;22144;-71
2022/09/19 05:59:03;;;;;;;4.35;2.85;;;;;;;13.69;100.00;98365.78;1597221;89;20971;-67
2022/09/19 06:01:31;;;;;;;7.00;3.42;;;;;;;13.68;100.00;98369.70;1607736;87;21709;-73
2022/09/19 06:03:59;;;;;;;4.37;3.10;;;;;;;13.67;100.00;98368.69;1597399;88;21000;-71
2022/09/19 06:06:30;;;;;;;3.95;2.92;;;;;;;13.67;100.00;98379.77;1597291;89;20971;-69
2022/09/19 06:08:59;;;;;;;2.87;2.67;;;;;;;13.63;100.00;98386.04;1597118;88;21305;-72
2022/09/19 06:11:28;;;;;;;3.70;2.90;;;;;;;13.62;100.00;98388.60;1562402;91;21020;-73
2022/09/19 06:16:42;;;;;;;6.25;3.35;;;;;;;13.67;100.00;98398.56;1562433;91;21041;-66
2022/09/19 06:19:16;;;;;;;4.50;3.25;;;;;;;13.70;100.00;98410.27;1558993;91;21085;-71
2022/09/19 06:21:44;;;;;;;5.53;3.45;;;;;;;13.72;100.00;98408.52;1597079;89;21163;-72
2022/09/19 06:24:11;;;;;;;4.85;3.72;;;;;;;13.73;100.00;98415.06;1597089;88;20960;-72
2022/09/19 06:26:39;;;;;;;5.08;3.05;;;;;;;13.75;100.00;98420.23;1597518;88;21518;-66
2022/09/19 06:29:06;;;;;;;6.78;3.30;;;;;;;13.77;100.00;98415.13;1597474;89;21088;-72
2022/09/19 06:31:35;;;;;;;5.25;2.98;;;;;;;13.79;100.00;98425.27;1597208;88;21034;-69
2022/09/19 06:34:17;;;;;;;;;;;;;;;13.85;100.00;98423.77;1590708;89;21543;-72
2022/09/19 06:36:45;;;;;;;3.27;2.75;;;;;;;13.92;100.00;98429.23;1597201;89;20097;-72
2022/09/19 06:39:14;;;;;;;7.03;3.00;;;;;;;13.97;100.00;98438.02;1597193;89;20895;-71
2022/09/19 06:41:42;;;;;;;3.37;2.58;;;;;;;14.08;100.00;98440.17;1579885;88;20994;-70
2022/09/19 06:44:14;;;;;;;3.80;2.67;;;;;;;14.18;100.00;98437.36;1584451;88;20990;-72
2022/09/19 06:46:52;;;;;;;3.25;2.05;;;;;;;14.23;100.00;98453.67;1575026;91;21196;-71
2022/09/19 06:49:23;;;;;;;3.80;3.02;;;;;;;14.29;100.00;98450.81;1598424;88;21504;-70
2022/09/19 06:51:54;;;;;;;3.37;2.50;;;;;;;14.37;100.00;98451.72;1597393;88;20999;-68
2022/09/19 06:54:22;;;;;;;5.80;1.92;;;;;;;14.45;100.00;98458.97;1597347;88;21467;-72
2022/09/19 06:56:52;;;;;;;2.30;2.10;;;;;;;14.47;100.00;98456.63;1597227;89;21547;-68
2022/09/19 06:59:19;;;;;;;3.05;2.50;;;;;;;14.58;100.00;98460.95;1597247;89;21138;-67
2022/09/19 07:01:47;;;;;;;2.45;2.22;;;;;;;14.66;100.00;98462.43;1597302;88;21034;-72
2022/09/19 07:04:14;;;;;;;6.45;2.65;;;;;;;14.71;100.00;98458.76;1597138;89;21114;-71
2022/09/19 07:06:47;;;;;;;2.30;2.10;;;;;;;14.76;100.00;98461.78;1597362;88;21543;-70
2022/09/19 07:09:15;;;;;;;2.67;2.20;;;;;;;14.79;100.00;98469.96;1597248;89;21080;-72
2022/09/19 07:11:46;;;;;;;3.58;1.90;;;;;;;14.83;100.00;98462.50;1597550;88;21828;-72
2022/09/19 07:14:16;;;;;;;3.75;2.12;;;;;;;14.85;100.00;98480.95;1597395;88;20997;-71
2022/09/19 07:16:43;;;;;;;2.75;2.15;;;;;;;14.85;100.00;98482.34;1587191;89;20967;-72
2022/09/19 07:19:10;;;;;;;2.42;1.70;;;;;;;14.86;100.00;98476.22;1597201;88;20990;-74
2022/09/19 07:21:39;;;;;;;2.10;1.77;;;;;;;14.81;100.00;98478.13;1597188;89;20983;-72
2022/09/19 07:24:08;;;;;;;4.62;2.12;;;;;;;14.81;100.00;98482.87;1597660;88;21790;-72
2022/09/19 07:26:53;;;;;;;3.45;2.10;;;;;;;14.82;100.00;98488.03;1597219;89;20907;-71
2022/09/19 07:29:21;;;;;;;3.00;2.30;;;;;;;14.84;100.00;98486.30;1597507;89;20876;-72
2022/09/19 07:31:47;;;;;;;4.55;2.37;;;;;;;14.88;100.00;98493.27;1597145;89;21022;-70
2022/09/19 07:34:14;;;;;;;5.05;2.27;;;;;;;14.89;100.00;98493.49;1563816;91;21088;-70
2022/09/19 07:36:46;;;;;;;3.55;1.75;;;;;;;14.91;100.00;98500.86;1597310;88;21164;-73
2022/09/19 07:39:12;;;;;;;3.72;2.60;;;;;;;14.90;100.00;98496.47;1597112;89;21019;-72
2022/09/19 07:41:41;;;;;;;5.33;2.70;;;;;;;14.86;100.00;98503.95;1543909;89;20998;-71
2022/09/19 07:44:23;;;;;;;6.40;1.82;;;;;;;14.81;100.00;98504.47;1582870;88;21058;-71
2022/09/19 07:49:50;;;;;;;3.72;2.17;;;;;;;14.69;100.00;98510.19;1597309;88;21113;-69
2022/09/19 07:52:32;;;;;;;5.12;2.45;;;;;;;14.63;100.00;98511.11;1596894;89;21006;-67
2022/09/19 07:54:59;;;;;;;6.12;2.50;;;;;;;14.65;100.00;98519.05;1597263;89;20962;-70
2022/09/19 07:57:29;;;;;;;3.83;2.33;;;;;;;14.69;100.00;98519.89;1597430;89;20978;-70
2022/09/19 07:59:57;;;;;;;4.30;2.52;;;;;;;14.73;100.00;98525.73;1597309;89;21124;-67
2022/09/19 08:02:26;;;;;;;2.92;2.52;;;;;;;14.75;100.00;98532.28;1597189;88;21159;-68
2022/09/19 08:04:53;;;;;;;7.33;2.37;;;;;;;14.78;100.00;98534.88;1597174;89;21023;-68
2022/09/19 08:07:20;;;;;;;5.05;2.15;;;;;;;14.79;100.00;98534.51;1597147;89;20975;-68
2022/09/19 08:09:48;;;;;;;4.95;2.55;;;;;;;14.81;100.00;98539.71;1597296;89;21111;-65
2022/09/19 08:12:25;;;;;;;5.97;2.85;;;;;;;14.89;100.00;98541.44;1562331;91;21145;-63
2022/09/19 08:14:57;;;;;;;4.83;2.87;;;;;;;15.04;100.00;98545.80;1563082;90;21165;-71
2022/09/19 08:17:24;;;;;;;7.85;2.98;;;;;;;15.20;100.00;98549.19;1562199;91;21020;-70
2022/09/19 08:19:54;;;;;;;7.40;2.40;;;;;;;15.39;100.00;98546.65;1562018;91;21473;-65
2022/09/19 08:22:20;;;;;;;5.67;2.70;;;;;;;15.49;100.00;98551.54;1562985;91;21012;-66
2022/09/19 08:24:49;;;;;;;4.45;3.00;;;;;;;15.52;100.00;98556.94;1561763;91;20991;-70
2022/09/19 08:27:15;;;;;;;5.50;3.20;;;;;;;15.46;100.00;98552.30;1562588;90;21179;-68
2022/09/19 08:29:43;;;;;;;7.65;2.50;;;;;;;15.40;100.00;98550.46;1598048;89;20935;-65
2022/09/19 08:32:14;;;;;;;5.37;2.83;;;;;;;15.35;100.00;98548.59;1598021;88;20947;-71
2022/09/19 08:34:40;;;;;;;5.05;2.92;;;;;;;15.35;100.00;98547.20;1597535;89;21079;-70
2022/09/19 08:37:08;;;;;;;4.62;2.45;;;;;;;15.39;100.00;98554.97;1597336;89;20935;-69
2022/09/19 08:40:15;;;;;;;3.17;2.15;;;;;;;15.55;100.00;98543.69;1597260;89;21108;-69
2022/09/19 08:42:22;;;;;;;6.37;2.42;;;;;;;15.72;100.00;98540.11;1594279;89;21598;-69
2022/09/19 08:45:13;;;;;;;6.25;2.55;;;;;;;15.84;100.00;98550.16;1597049;89;21479;-66
2022/09/19 08:47:40;;;;;;;4.97;2.80;;;;;;;15.75;100.00;98549.06;1597342;88;20989;-64
2022/09/19 08:50:18;;;;;;;10.90;2.83;;;;;;;15.71;100.00;98562.94;1597358;88;21133;-68
2022/09/19 08:52:48;;;;;;;3.65;2.47;;;;;;;15.71;100.00;98565.71;1597236;89;21581;-71
2022/09/19 08:55:20;;;;;;;6.50;2.65;;;;;;;15.77;100.00;98558.63;1597494;88;20938;-66
2022/09/19 08:58:01;;;;;;;5.80;2.80;;;;;;;15.79;100.00;98570.17;1597289;89;21014;-71
2022/09/19 09:00:35;;;;;;;5.27;2.40;;;;;;;15.75;100.00;98567.12;1598261;88;21030;-73
2022/09/19 09:03:07;;;;;;;3.72;2.72;;;;;;;15.79;100.00;98561.03;1597324;88;21378;-70
2022/09/19 09:05:46;;;;;;;3.50;2.52;;;;;;;15.81;100.00;98571.17;1597296;88;21236;-72
2022/09/19 09:08:49;;;;;;;5.92;2.75;;;;;;;15.90;100.00;98574.44;1597424;89;20987;-71
2022/09/19 09:11:53;;;;;;;7.85;3.08;;;;;;;15.79;100.00;98580.47;1597296;88;21049;-66
2022/09/19 09:14:38;;;;;;;7.20;3.10;;;;;;;15.67;100.00;98582.90;1600244;87;21033;-72
2022/09/19 09:17:20;;;;;;;8.28;2.80;;;;;;;15.58;100.00;98594.29;1613946;88;21053;-70
2022/09/19 09:20:19;;;;;;;4.97;2.52;;;;;;;15.53;100.00;98595.42;1615084;88;21161;-70
2022/09/19 09:22:49;;;;;;;7.78;3.58;;;;;;;15.47;100.00;98598.33;1614982;88;21636;-69
2022/09/19 09:25:33;;;;;;;6.60;3.30;;;;;;;15.46;100.00;98606.42;1575729;88;20909;-71
2022/09/19 09:28:25;;;;;;;6.15;3.80;;;;;;;15.49;100.00;98608.45;1578354;89;21014;-64
2022/09/19 09:31:34;;;;;;;6.37;2.98;;;;;;;15.52;100.00;98613.27;1599387;88;21073;-70
2022/09/19 09:34:09;;;;;;;5.50;2.50;;;;;;;15.58;100.00;98613.72;1615274;88;21152;-71
2022/09/19 09:36:42;;;;;;;5.90;2.65;;;;;;;15.64;100.00;98615.59;1615076;88;21009;-72
2022/09/19 09:39:22;;;;;;;6.90;3.17;;;;;;;15.79;100.00;98621.55;1615159;88;20976;-70
2022/09/19 09:41:54;;;;;;;5.90;2.60;;;;;;;15.96;100.00;98614.37;1615046;88;21006;-70
2022/09/19 09:44:59;;;;;;;24.15;3.08;;;;;;;16.23;100.00;98614.30;1615026;88;21013;-70
2022/09/19 09:47:44;;;;;;;5.78;2.25;;;;;;;16.41;100.00;98608.95;1614636;88;21568;-70
2022/09/19 09:50:34;;;;;;;7.92;2.67;;;;;;;16.55;100.00;98611.05;1614902;88;20902;-72
2022/09/19 09:53:24;;;;;;;7.72;2.98;;;;;;;16.63;100.00;98612.70;1614849;86;21016;-69
2022/09/19 09:56:17;;;;;;;9.50;2.87;;;;;;;16.77;100.00;98605.09;1614966;86;20969;-71
2022/09/19 09:59:07;;;;;;;4.85;2.30;;;;;;;16.89;100.00;98607.35;1614827;88;21112;-70
2022/09/19 10:04:51;;;;;;;6.65;2.65;;;;;;;16.77;100.00;98627.34;1614967;88;20942;-72
2022/09/19 10:07:36;;;;;;;7.83;2.55;;;;;;;16.77;100.00;98634.88;1615211;88;21077;-68
2022/09/19 10:10:14;;;;;;;4.22;2.02;;;;;;;16.83;100.00;98635.33;1614995;88;20890;-67
2022/09/19 10:13:09;;;;;;;6.80;2.37;;;;;;;17.06;100.00;98637.11;1615249;88;20909;-67
2022/09/19 10:15:39;;;;;;;7.28;2.37;;;;;;;17.28;100.00;98632.53;1615702;87;21299;-69
2022/09/19 10:18:14;;;;;;;6.28;1.92;;;;;;;17.47;100.00;98642.58;1578209;90;21092;-71
2022/09/19 10:20:53;;;;;;;10.35;2.37;;;;;;;17.52;100.00;98638.62;1576968;90;20987;-72
2022/09/19 10:23:32;;;;;;;7.87;2.40;;;;;;;17.43;100.00;98645.95;1598503;88;21486;-71
2022/09/19 10:26:04;;;;;;;9.48;2.47;;;;;;;17.33;100.00;98642.50;1615197;88;21006;-66
2022/09/19 10:28:41;;;;;;;5.25;1.75;;;;;;;17.27;100.00;98640.66;1615012;88;21476;-71
2022/09/19 10:31:24;;;;;;;8.53;2.12;;;;;;;17.21;100.00;98646.39;1596372;88;21505;-70
2022/09/19 10:33:53;;;;;;;5.70;2.30;;;;;;;17.20;100.00;98649.77;1612957;88;33661;-70
2022/09/19 10:36:31;;;;;;;5.22;2.22;;;;;;;17.25;100.00;98648.59;1615075;88;20990;-69
2022/09/19 10:39:01;;;;;;;7.85;2.00;;;;;;;17.33;100.00;98648.84;1614110;88;21018;-69
2022/09/19 10:41:31;;;;;;;7.22;2.08;;;;;;;17.36;100.00;98654.24;1615070;88;21618;-72
2022/09/19 10:44:00;;;;;;;7.45;3.08;;;;;;;17.34;100.00;98657.42;1614741;88;21009;-72
2022/09/19 10:46:36;;;;;;;10.82;2.72;;;;;;;17.35;100.00;98661.79;1577978;90;20995;-71
2022/09/19 10:49:21;;;;;;;4.90;2.12;;;;;;;17.34;100.00;98669.14;1614527;88;21549;-71
2022/09/19 10:51:53;;;;;;;4.00;1.98;;;;;;;17.35;100.00;98665.19;1597741;88;21062;-69
2022/09/19 10:54:36;;;;;;;;;;;;;;;17.38;100.00;98669.98;1617586;88;20950;-71
2022/09/19 10:57:05;;;;;;;6.75;1.80;;;;;;;17.44;100.00;98672.59;1614909;88;20152;-71
2022/09/19 10:59:37;;;;;;;8.68;2.25;;;;;;;17.65;100.00;98678.09;1614971;88;21059;-73
2022/09/19 11:02:26;;;;;;;6.12;2.20;;;;;;;17.91;100.00;98690.77;1614944;87;20958;-69
2022/09/19 11:05:09;;;;;;;7.72;2.05;;;;;;;18.07;100.00;98684.85;1615536;88;21033;-70
2022/09/19 11:07:54;;;;;;;4.05;1.87;;;;;;;18.13;100.00;98686.12;1614721;88;21118;-73
2022/09/19 11:10:42;;;;;;;5.95;2.40;;;;;;;18.29;100.00;98696.92;1615077;88;21451;-68
2022/09/19 11:13:22;;;;;;;6.75;2.20;;;;;;;18.32;100.00;98701.70;1548991;92;21076;-66
2022/09/19 11:16:22;;;;;;;3.60;1.82;;;;;;;18.33;100.00;98711.68;1616061;87;20993;-69
2022/09/19 11:19:21;;;;;;;7.05;1.98;;;;;;;18.34;100.00;98703.51;1614956;88;21073;-67
2022/09/19 11:22:16;;;;;;;5.15;1.72;;;;;;;18.30;100.00;98713.87;1615149;88;21192;-68
2022/09/19 11:25:12;;;;;;;18.15;3.05;;;;;;;18.16;100.00;98717.97;1614820;88;21076;-71
2022/09/19 11:28:15;;;;;;;9.83;2.35;;;;;;;17.99;100.00;98728.03;1614842;88;20946;-71
2022/09/19 11:31:19;;;;;;;10.85;2.33;;;;;;;17.84;100.00;98730.53;1614922;88;20882;-65
2022/09/19 11:34:12;;;;;;;6.13;2.17;;;;;;;17.66;100.00;98731.83;1615208;88;21529;-72
2022/09/19 11:37:01;;;;;;;5.72;1.90;;;;;;;17.48;100.00;98736.66;1578248;90;21612;-71
2022/09/19 11:39:55;;;;;;;7.12;1.92;;;;;;;17.36;100.00;98733.59;1578049;91;21015;-70
2022/09/19 11:42:39;;;;;;;6.47;1.67;;;;;;;17.27;100.00;98739.48;1578139;91;20931;-71
2022/09/19 11:45:13;;;;;;;9.75;2.08;;;;;;;17.22;100.00;98737.85;1577798;90;21611;-70
2022/09/19 11:48:16;;;;;;;10.88;2.00;;;;;;;17.18;100.00;98737.01;1559128;91;21416;-71
2022/09/19 11:51:12;;;;;;;4.65;1.60;;;;;;;17.12;100.00;98743.54;1572861;91;21105;-72
2022/09/19 11:54:34;;;;;;;9.48;2.60;;;;;;;17.05;100.00;98744.83;1578095;91;20916;-72
2022/09/19 11:57:27;;;;;;;9.75;2.30;;;;;;;17.02;100.00;98751.97;1577910;91;20959;-68
2022/09/19 12:00:13;;;;;;;5.33;2.20;;;;;;;17.03;100.00;98736.86;1490316;95;21509;-74
2022/09/19 12:03:16;;;;;;;5.78;2.55;;;;;;;17.01;100.00;98736.44;1578095;89;21094;-71
2022/09/19 12:06:07;;;;;;;6.72;1.98;;;;;;;17.01;100.00;98740.61;1578190;90;21194;-72
2022/09/19 12:09:25;;;;;;;4.53;1.70;;;;;;;17.06;100.00;98748.42;1578284;91;20971;-70
2022/09/19 12:12:06;;;;;;;6.58;1.98;;;;;;;17.14;100.00;98745.94;1615183;87;20922;-73
2022/09/19 12:14:42;;;;;;;5.03;1.22;;;;;;;17.10;100.00;98745.90;1577618;89;21088;-70
2022/09/19 12:17:27;;;;;;;7.08;1.62;;;;;;;17.12;100.00;98737.16;1597345;89;21015;-73